sensor_id;sensor_type;location;lat;lon;timestamp;temperature;humidity
506;DHT22;551;48.524;9.056;2022-12-15T00:01:03;0.80;1.00
506;DHT22;551;48.524;9.056;2022-12-15T00:03:47;0.80;1.00
506;DHT22;551;48.524;9.056;2022-12-15T00:06:31;0.80;1.00
506;DHT22;551;48.524;9.056;2022-12-15T00:09:15;0.80;1.00
506;DHT22;551;48.524;9.056;2022-12-15T00:12:00;0.80;1.00
506;DHT22;551;48.524;9.056;2022-12-15T00:14:44;0.80;1.00
506;DHT22;551;48.524;9.056;2022-12-15T00:17:31;0.80;1.00
506;DHT22;551;48.524;9.056;2022-12-15T00:20:15;0.80;1.00
506;DHT22;551;48.524;9.056;2022-12-15T00:23:10;0.80;1.00
506;DHT22;551;48.524;9.056;2022-12-15T00:25:55;0.90;1.00
506;DHT22;551;48.524;9.056;2022-12-15T00:28:40;0.80;1.00
506;DHT22;551;48.524;9.056;2022-12-15T00:31:24;0.80;1.00
506;DHT22;551;48.524;9.056;2022-12-15T00:34:08;0.90;1.00
506;DHT22;551;48.524;9.056;2022-12-15T00:36:53;0.80;1.00
506;DHT22;551;48.524;9.056;2022-12-15T00:39:37;0.90;1.00
506;DHT22;551;48.524;9.056;2022-12-15T00:42:02;1.00;1.00
506;DHT22;551;48.524;9.056;2022-12-15T00:44:28;0.90;1.00
506;DHT22;551;48.524;9.056;2022-12-15T00:46:54;0.90;1.00
506;DHT22;551;48.524;9.056;2022-12-15T00:49:21;0.80;1.00
506;DHT22;551;48.524;9.056;2022-12-15T00:52:06;0.90;1.00
506;DHT22;551;48.524;9.056;2022-12-15T00:54:50;0.90;1.00
506;DHT22;551;48.524;9.056;2022-12-15T00:57:34;0.90;1.00
506;DHT22;551;48.524;9.056;2022-12-15T01:00:18;0.90;1.00
506;DHT22;551;48.524;9.056;2022-12-15T01:03:10;1.00;1.00
506;DHT22;551;48.524;9.056;2022-12-15T01:05:54;1.00;1.00
506;DHT22;551;48.524;9.056;2022-12-15T01:08:38;1.00;1.00
506;DHT22;551;48.524;9.056;2022-12-15T01:11:23;1.00;1.00
506;DHT22;551;48.524;9.056;2022-12-15T01:14:07;1.00;1.00
506;DHT22;551;48.524;9.056;2022-12-15T01:16:51;1.00;1.00
506;DHT22;551;48.524;9.056;2022-12-15T01:19:35;1.00;1.00
506;DHT22;551;48.524;9.056;2022-12-15T01:22:19;0.90;1.00
506;DHT22;551;48.524;9.056;2022-12-15T01:24:44;0.90;1.00
506;DHT22;551;48.524;9.056;2022-12-15T01:27:10;1.00;1.00
506;DHT22;551;48.524;9.056;2022-12-15T01:29:35;1.00;1.00
506;DHT22;551;48.524;9.056;2022-12-15T01:32:01;1.00;1.00
506;DHT22;551;48.524;9.056;2022-12-15T01:34:26;1.00;1.00
506;DHT22;551;48.524;9.056;2022-12-15T01:36:52;1.00;1.00
506;DHT22;551;48.524;9.056;2022-12-15T01:39:17;1.00;1.00
506;DHT22;551;48.524;9.056;2022-12-15T01:41:43;1.00;1.00
506;DHT22;551;48.524;9.056;2022-12-15T01:44:18;1.00;1.00
506;DHT22;551;48.524;9.056;2022-12-15T01:46:45;0.90;1.00
506;DHT22;551;48.524;9.056;2022-12-15T01:49:15;0.90;1.00
506;DHT22;551;48.524;9.056;2022-12-15T01:51:47;1.00;1.00
506;DHT22;551;48.524;9.056;2022-12-15T01:56:45;1.00;1.00
506;DHT22;551;48.524;9.056;2022-12-15T01:59:17;1.00;1.00
506;DHT22;551;48.524;9.056;2022-12-15T02:01:44;1.00;1.00
506;DHT22;551;48.524;9.056;2022-12-15T02:04:10;1.00;1.00
506;DHT22;551;48.524;9.056;2022-12-15T02:06:36;1.10;1.00
506;DHT22;551;48.524;9.056;2022-12-15T02:09:02;1.10;1.00
506;DHT22;551;48.524;9.056;2022-12-15T02:14:57;1.10;1.00
506;DHT22;551;48.524;9.056;2022-12-15T02:17:29;1.10;1.00
506;DHT22;551;48.524;9.056;2022-12-15T02:28:27;1.10;1.00
506;DHT22;551;48.524;9.056;2022-12-15T02:31:14;1.10;1.00
506;DHT22;551;48.524;9.056;2022-12-15T02:34:12;1.10;1.00
506;DHT22;551;48.524;9.056;2022-12-15T02:36:41;1.10;1.00
506;DHT22;551;48.524;9.056;2022-12-15T02:39:11;1.10;1.00
506;DHT22;551;48.524;9.056;2022-12-15T02:44:16;1.10;1.00
506;DHT22;551;48.524;9.056;2022-12-15T02:47:14;1.10;1.00
506;DHT22;551;48.524;9.056;2022-12-15T02:49:57;1.20;1.00
506;DHT22;551;48.524;9.056;2022-12-15T02:52:44;1.10;1.00
506;DHT22;551;48.524;9.056;2022-12-15T02:55:33;1.10;1.00
506;DHT22;551;48.524;9.056;2022-12-15T02:58:20;1.10;1.00
506;DHT22;551;48.524;9.056;2022-12-15T03:01:23;1.00;1.00
506;DHT22;551;48.524;9.056;2022-12-15T03:03:47;1.00;1.00
506;DHT22;551;48.524;9.056;2022-12-15T03:06:14;1.00;1.00
506;DHT22;551;48.524;9.056;2022-12-15T03:08:40;1.00;1.00
506;DHT22;551;48.524;9.056;2022-12-15T03:11:05;1.00;1.00
506;DHT22;551;48.524;9.056;2022-12-15T03:13:31;1.00;1.00
506;DHT22;551;48.524;9.056;2022-12-15T03:15:58;0.90;1.00
506;DHT22;551;48.524;9.056;2022-12-15T03:18:24;1.00;1.00
506;DHT22;551;48.524;9.056;2022-12-15T03:20:50;1.00;1.00
506;DHT22;551;48.524;9.056;2022-12-15T03:23:15;1.00;1.00
506;DHT22;551;48.524;9.056;2022-12-15T03:25:44;1.00;1.00
506;DHT22;551;48.524;9.056;2022-12-15T03:28:09;1.00;1.00
506;DHT22;551;48.524;9.056;2022-12-15T03:30:35;1.00;1.00
506;DHT22;551;48.524;9.056;2022-12-15T03:33:00;1.00;1.00
506;DHT22;551;48.524;9.056;2022-12-15T03:35:26;0.90;1.00
506;DHT22;551;48.524;9.056;2022-12-15T03:37:51;1.00;1.00
506;DHT22;551;48.524;9.056;2022-12-15T03:40:17;1.00;1.00
506;DHT22;551;48.524;9.056;2022-12-15T03:42:43;1.10;1.00
506;DHT22;551;48.524;9.056;2022-12-15T03:45:20;1.10;1.00
506;DHT22;551;48.524;9.056;2022-12-15T03:47:46;1.00;1.00
506;DHT22;551;48.524;9.056;2022-12-15T03:50:15;1.00;1.00
506;DHT22;551;48.524;9.056;2022-12-15T03:52:41;1.10;1.00
506;DHT22;551;48.524;9.056;2022-12-15T03:55:07;1.10;1.00
506;DHT22;551;48.524;9.056;2022-12-15T03:57:33;1.00;1.00
506;DHT22;551;48.524;9.056;2022-12-15T03:59:58;1.00;1.00
506;DHT22;551;48.524;9.056;2022-12-15T04:02:24;1.00;1.00
506;DHT22;551;48.524;9.056;2022-12-15T04:04:49;1.00;1.00
506;DHT22;551;48.524;9.056;2022-12-15T04:07:15;0.90;1.00
506;DHT22;551;48.524;9.056;2022-12-15T04:09:40;0.90;1.00
506;DHT22;551;48.524;9.056;2022-12-15T04:12:06;0.90;1.00
506;DHT22;551;48.524;9.056;2022-12-15T04:14:32;0.90;1.00
506;DHT22;551;48.524;9.056;2022-12-15T04:16:57;1.00;1.00
506;DHT22;551;48.524;9.056;2022-12-15T04:19:23;1.00;1.00
506;DHT22;551;48.524;9.056;2022-12-15T04:22:07;1.10;1.00
506;DHT22;551;48.524;9.056;2022-12-15T04:24:33;1.00;1.00
506;DHT22;551;48.524;9.056;2022-12-15T04:27:17;0.90;1.00
506;DHT22;551;48.524;9.056;2022-12-15T04:30:01;0.90;1.00
506;DHT22;551;48.524;9.056;2022-12-15T04:32:46;0.90;1.00
506;DHT22;551;48.524;9.056;2022-12-15T04:35:32;0.80;1.00
506;DHT22;551;48.524;9.056;2022-12-15T04:38:18;0.80;1.00
506;DHT22;551;48.524;9.056;2022-12-15T04:41:02;0.80;1.00
506;DHT22;551;48.524;9.056;2022-12-15T04:43:46;0.90;1.00
506;DHT22;551;48.524;9.056;2022-12-15T04:46:30;0.90;1.00
506;DHT22;551;48.524;9.056;2022-12-15T04:49:14;0.90;1.00
506;DHT22;551;48.524;9.056;2022-12-15T04:51:58;0.80;1.00
506;DHT22;551;48.524;9.056;2022-12-15T04:54:42;0.80;1.00
506;DHT22;551;48.524;9.056;2022-12-15T04:57:26;0.90;1.00
506;DHT22;551;48.524;9.056;2022-12-15T05:00:11;0.90;1.00
506;DHT22;551;48.524;9.056;2022-12-15T05:02:55;1.00;1.00
506;DHT22;551;48.524;9.056;2022-12-15T05:05:39;1.00;1.00
506;DHT22;551;48.524;9.056;2022-12-15T05:08:23;1.10;1.00
506;DHT22;551;48.524;9.056;2022-12-15T05:11:07;1.00;1.00
506;DHT22;551;48.524;9.056;2022-12-15T05:13:51;1.00;1.00
506;DHT22;551;48.524;9.056;2022-12-15T05:16:35;0.90;1.00
506;DHT22;551;48.524;9.056;2022-12-15T05:19:19;0.90;1.00
506;DHT22;551;48.524;9.056;2022-12-15T05:22:03;1.00;1.00
506;DHT22;551;48.524;9.056;2022-12-15T05:24:47;0.90;1.00
506;DHT22;551;48.524;9.056;2022-12-15T05:27:31;0.90;1.00
506;DHT22;551;48.524;9.056;2022-12-15T05:30:15;0.80;1.00
506;DHT22;551;48.524;9.056;2022-12-15T05:33:03;0.90;1.00
506;DHT22;551;48.524;9.056;2022-12-15T05:35:28;0.90;1.00
506;DHT22;551;48.524;9.056;2022-12-15T05:37:54;0.90;1.00
506;DHT22;551;48.524;9.056;2022-12-15T05:40:19;0.80;1.00
506;DHT22;551;48.524;9.056;2022-12-15T05:42:45;0.80;1.00
506;DHT22;551;48.524;9.056;2022-12-15T05:45:10;0.90;1.00
506;DHT22;551;48.524;9.056;2022-12-15T05:47:36;0.80;1.00
506;DHT22;551;48.524;9.056;2022-12-15T05:50:01;0.80;1.00
506;DHT22;551;48.524;9.056;2022-12-15T05:52:27;0.70;1.00
506;DHT22;551;48.524;9.056;2022-12-15T05:54:52;0.70;1.00
506;DHT22;551;48.524;9.056;2022-12-15T05:57:18;0.80;1.00
506;DHT22;551;48.524;9.056;2022-12-15T05:59:43;0.80;1.00
506;DHT22;551;48.524;9.056;2022-12-15T06:02:09;0.80;1.00
506;DHT22;551;48.524;9.056;2022-12-15T06:04:34;0.80;1.00
506;DHT22;551;48.524;9.056;2022-12-15T06:07:00;0.80;1.00
506;DHT22;551;48.524;9.056;2022-12-15T06:09:25;0.80;1.00
506;DHT22;551;48.524;9.056;2022-12-15T06:11:51;0.80;1.00
506;DHT22;551;48.524;9.056;2022-12-15T06:14:16;0.80;1.00
506;DHT22;551;48.524;9.056;2022-12-15T06:16:42;0.70;1.00
506;DHT22;551;48.524;9.056;2022-12-15T06:19:07;0.70;1.00
506;DHT22;551;48.524;9.056;2022-12-15T06:21:34;0.70;1.00
506;DHT22;551;48.524;9.056;2022-12-15T06:24:00;0.70;1.00
506;DHT22;551;48.524;9.056;2022-12-15T06:26:32;0.80;1.00
506;DHT22;551;48.524;9.056;2022-12-15T06:28:59;0.70;1.00
506;DHT22;551;48.524;9.056;2022-12-15T06:31:28;0.70;1.00
506;DHT22;551;48.524;9.056;2022-12-15T06:33:54;0.70;1.00
506;DHT22;551;48.524;9.056;2022-12-15T06:36:20;0.70;1.00
506;DHT22;551;48.524;9.056;2022-12-15T06:38:48;0.80;1.00
506;DHT22;551;48.524;9.056;2022-12-15T06:41:16;0.80;1.00
506;DHT22;551;48.524;9.056;2022-12-15T06:43:48;0.80;1.00
506;DHT22;551;48.524;9.056;2022-12-15T06:46:14;0.80;1.00
506;DHT22;551;48.524;9.056;2022-12-15T06:48:40;0.80;1.00
506;DHT22;551;48.524;9.056;2022-12-15T06:51:09;0.80;1.00
506;DHT22;551;48.524;9.056;2022-12-15T06:53:36;0.80;1.00
506;DHT22;551;48.524;9.056;2022-12-15T06:56:04;0.90;1.00
506;DHT22;551;48.524;9.056;2022-12-15T06:58:31;0.80;1.00
506;DHT22;551;48.524;9.056;2022-12-15T07:00:58;0.80;1.00
506;DHT22;551;48.524;9.056;2022-12-15T07:03:23;0.80;1.00
506;DHT22;551;48.524;9.056;2022-12-15T07:06:00;0.80;1.00
506;DHT22;551;48.524;9.056;2022-12-15T07:08:26;0.80;1.00
506;DHT22;551;48.524;9.056;2022-12-15T07:10:52;0.80;1.00
506;DHT22;551;48.524;9.056;2022-12-15T07:13:17;0.80;1.00
506;DHT22;551;48.524;9.056;2022-12-15T07:15:43;0.80;1.00
506;DHT22;551;48.524;9.056;2022-12-15T07:18:10;0.80;1.00
506;DHT22;551;48.524;9.056;2022-12-15T07:20:36;0.80;1.00
506;DHT22;551;48.524;9.056;2022-12-15T07:23:01;0.80;1.00
506;DHT22;551;48.524;9.056;2022-12-15T07:25:32;0.80;1.00
506;DHT22;551;48.524;9.056;2022-12-15T07:27:59;0.90;1.00
506;DHT22;551;48.524;9.056;2022-12-15T07:30:25;0.90;1.00
506;DHT22;551;48.524;9.056;2022-12-15T07:32:50;0.90;1.00
506;DHT22;551;48.524;9.056;2022-12-15T07:35:16;0.90;1.00
506;DHT22;551;48.524;9.056;2022-12-15T07:37:42;0.90;1.00
506;DHT22;551;48.524;9.056;2022-12-15T07:40:11;1.00;1.00
506;DHT22;551;48.524;9.056;2022-12-15T07:42:36;1.00;1.00
506;DHT22;551;48.524;9.056;2022-12-15T07:45:03;1.00;1.00
506;DHT22;551;48.524;9.056;2022-12-15T07:47:29;1.00;1.00
506;DHT22;551;48.524;9.056;2022-12-15T07:49:55;1.00;1.00
506;DHT22;551;48.524;9.056;2022-12-15T07:52:20;1.00;1.00
506;DHT22;551;48.524;9.056;2022-12-15T07:54:46;1.00;1.00
506;DHT22;551;48.524;9.056;2022-12-15T07:57:14;1.00;1.00
506;DHT22;551;48.524;9.056;2022-12-15T07:59:40;1.00;1.00
506;DHT22;551;48.524;9.056;2022-12-15T08:02:06;1.10;1.00
506;DHT22;551;48.524;9.056;2022-12-15T08:04:31;1.20;1.00
506;DHT22;551;48.524;9.056;2022-12-15T08:06:57;1.20;1.00
506;DHT22;551;48.524;9.056;2022-12-15T08:09:23;1.30;1.00
506;DHT22;551;48.524;9.056;2022-12-15T08:11:49;1.30;1.00
506;DHT22;551;48.524;9.056;2022-12-15T08:14:16;1.30;1.00
506;DHT22;551;48.524;9.056;2022-12-15T08:16:41;1.40;1.00
506;DHT22;551;48.524;9.056;2022-12-15T08:19:10;1.40;1.00
506;DHT22;551;48.524;9.056;2022-12-15T08:21:38;1.40;1.00
506;DHT22;551;48.524;9.056;2022-12-15T08:24:04;1.40;1.00
506;DHT22;551;48.524;9.056;2022-12-15T08:26:30;1.50;1.00
506;DHT22;551;48.524;9.056;2022-12-15T08:28:56;1.70;1.00
506;DHT22;551;48.524;9.056;2022-12-15T08:31:22;1.70;1.00
506;DHT22;551;48.524;9.056;2022-12-15T08:33:49;1.60;1.00
506;DHT22;551;48.524;9.056;2022-12-15T08:36:17;1.60;1.00
506;DHT22;551;48.524;9.056;2022-12-15T08:38:44;1.60;1.00
506;DHT22;551;48.524;9.056;2022-12-15T08:41:12;1.60;1.00
506;DHT22;551;48.524;9.056;2022-12-15T08:43:38;1.60;1.00
506;DHT22;551;48.524;9.056;2022-12-15T08:46:05;1.70;1.00
506;DHT22;551;48.524;9.056;2022-12-15T08:48:32;1.70;1.00
506;DHT22;551;48.524;9.056;2022-12-15T08:50:58;1.70;1.00
506;DHT22;551;48.524;9.056;2022-12-15T08:53:25;1.70;1.00
506;DHT22;551;48.524;9.056;2022-12-15T08:55:50;1.80;1.00
506;DHT22;551;48.524;9.056;2022-12-15T08:58:16;2.00;1.00
506;DHT22;551;48.524;9.056;2022-12-15T09:00:42;2.20;1.00
506;DHT22;551;48.524;9.056;2022-12-15T09:03:07;2.40;1.00
506;DHT22;551;48.524;9.056;2022-12-15T09:05:34;2.80;1.00
506;DHT22;551;48.524;9.056;2022-12-15T09:08:00;3.20;1.00
506;DHT22;551;48.524;9.056;2022-12-15T09:10:25;3.20;1.00
506;DHT22;551;48.524;9.056;2022-12-15T09:12:50;3.50;1.00
506;DHT22;551;48.524;9.056;2022-12-15T09:15:17;3.70;1.00
506;DHT22;551;48.524;9.056;2022-12-15T09:17:43;3.70;1.00
506;DHT22;551;48.524;9.056;2022-12-15T09:20:09;3.70;1.00
506;DHT22;551;48.524;9.056;2022-12-15T09:22:35;3.50;1.00
506;DHT22;551;48.524;9.056;2022-12-15T09:25:01;3.40;1.00
506;DHT22;551;48.524;9.056;2022-12-15T09:27:27;3.10;1.00
506;DHT22;551;48.524;9.056;2022-12-15T09:29:55;3.00;1.00
506;DHT22;551;48.524;9.056;2022-12-15T09:32:20;2.80;1.00
506;DHT22;551;48.524;9.056;2022-12-15T09:34:46;2.80;1.00
506;DHT22;551;48.524;9.056;2022-12-15T09:37:12;2.90;1.00
506;DHT22;551;48.524;9.056;2022-12-15T09:39:37;2.80;1.00
506;DHT22;551;48.524;9.056;2022-12-15T09:42:03;2.70;1.00
506;DHT22;551;48.524;9.056;2022-12-15T09:44:30;2.70;1.00
506;DHT22;551;48.524;9.056;2022-12-15T09:47:25;2.80;1.00
506;DHT22;551;48.524;9.056;2022-12-15T09:49:53;2.70;1.00
506;DHT22;551;48.524;9.056;2022-12-15T09:53:02;2.60;1.00
506;DHT22;551;48.524;9.056;2022-12-15T09:55:31;2.60;1.00
506;DHT22;551;48.524;9.056;2022-12-15T09:58:05;2.60;1.00
506;DHT22;551;48.524;9.056;2022-12-15T10:00:57;2.70;1.00
506;DHT22;551;48.524;9.056;2022-12-15T10:03:39;2.70;1.00
506;DHT22;551;48.524;9.056;2022-12-15T10:06:11;2.70;1.00
506;DHT22;551;48.524;9.056;2022-12-15T10:08:40;2.90;1.00
506;DHT22;551;48.524;9.056;2022-12-15T10:11:33;3.00;1.00
506;DHT22;551;48.524;9.056;2022-12-15T10:14:14;3.20;1.00
506;DHT22;551;48.524;9.056;2022-12-15T10:16:54;3.30;1.00
506;DHT22;551;48.524;9.056;2022-12-15T10:22:30;3.30;1.00
506;DHT22;551;48.524;9.056;2022-12-15T10:24:58;3.30;1.00
506;DHT22;551;48.524;9.056;2022-12-15T10:30:12;3.10;1.00
506;DHT22;551;48.524;9.056;2022-12-15T10:35:27;3.10;1.00
506;DHT22;551;48.524;9.056;2022-12-15T10:38:04;3.10;1.00
506;DHT22;551;48.524;9.056;2022-12-15T10:40:51;3.00;1.00
506;DHT22;551;48.524;9.056;2022-12-15T10:43:30;3.10;1.00
506;DHT22;551;48.524;9.056;2022-12-15T10:48:26;2.90;1.00
506;DHT22;551;48.524;9.056;2022-12-15T10:56:30;3.10;1.00
506;DHT22;551;48.524;9.056;2022-12-15T10:59:02;3.10;1.00
506;DHT22;551;48.524;9.056;2022-12-15T11:01:31;3.20;1.00
506;DHT22;551;48.524;9.056;2022-12-15T11:03:57;3.40;1.00
506;DHT22;551;48.524;9.056;2022-12-15T11:06:28;3.50;1.00
506;DHT22;551;48.524;9.056;2022-12-15T11:08:57;3.50;1.00
506;DHT22;551;48.524;9.056;2022-12-15T11:11:33;3.60;1.00
506;DHT22;551;48.524;9.056;2022-12-15T11:14:24;3.90;1.00
506;DHT22;551;48.524;9.056;2022-12-15T11:16:56;3.70;1.00
506;DHT22;551;48.524;9.056;2022-12-15T11:21:53;3.60;1.00
506;DHT22;551;48.524;9.056;2022-12-15T11:27:29;3.60;1.00
506;DHT22;551;48.524;9.056;2022-12-15T11:32:36;3.70;1.00
506;DHT22;551;48.524;9.056;2022-12-15T11:35:03;3.80;1.00
506;DHT22;551;48.524;9.056;2022-12-15T11:37:40;3.80;1.00
506;DHT22;551;48.524;9.056;2022-12-15T11:50:56;4.00;1.00
506;DHT22;551;48.524;9.056;2022-12-15T11:56:28;4.00;1.00
506;DHT22;551;48.524;9.056;2022-12-15T11:59:33;3.90;1.00
506;DHT22;551;48.524;9.056;2022-12-15T12:05:12;4.20;1.00
506;DHT22;551;48.524;9.056;2022-12-15T12:07:43;4.20;1.00
506;DHT22;551;48.524;9.056;2022-12-15T12:10:29;4.40;1.00
506;DHT22;551;48.524;9.056;2022-12-15T12:16:15;4.50;1.00
506;DHT22;551;48.524;9.056;2022-12-15T12:21:27;4.70;1.00
506;DHT22;551;48.524;9.056;2022-12-15T12:24:00;4.70;1.00
506;DHT22;551;48.524;9.056;2022-12-15T12:26:30;4.50;1.00
506;DHT22;551;48.524;9.056;2022-12-15T12:29:03;4.40;1.00
506;DHT22;551;48.524;9.056;2022-12-15T12:31:54;4.30;1.00
506;DHT22;551;48.524;9.056;2022-12-15T12:34:26;4.40;1.00
506;DHT22;551;48.524;9.056;2022-12-15T12:36:56;4.50;1.00
506;DHT22;551;48.524;9.056;2022-12-15T12:39:25;4.40;1.00
506;DHT22;551;48.524;9.056;2022-12-15T12:42:48;4.40;1.00
506;DHT22;551;48.524;9.056;2022-12-15T12:44:53;4.30;1.00
506;DHT22;551;48.524;9.056;2022-12-15T12:47:23;4.00;1.00
506;DHT22;551;48.524;9.056;2022-12-15T12:50:02;3.90;1.00
506;DHT22;551;48.524;9.056;2022-12-15T12:52:31;3.90;1.00
506;DHT22;551;48.524;9.056;2022-12-15T12:55:03;3.90;1.00
506;DHT22;551;48.524;9.056;2022-12-15T12:57:36;3.70;1.00
506;DHT22;551;48.524;9.056;2022-12-15T13:00:22;3.60;1.00
506;DHT22;551;48.524;9.056;2022-12-15T13:05:32;3.40;1.00
506;DHT22;551;48.524;9.056;2022-12-15T13:10:31;3.40;1.00
506;DHT22;551;48.524;9.056;2022-12-15T13:12:58;3.30;1.00
506;DHT22;551;48.524;9.056;2022-12-15T13:18:16;3.20;1.00
506;DHT22;551;48.524;9.056;2022-12-15T13:20:44;3.30;1.00
506;DHT22;551;48.524;9.056;2022-12-15T13:47:21;3.30;1.00
506;DHT22;551;48.524;9.056;2022-12-15T13:50:09;3.60;1.00
506;DHT22;551;48.524;9.056;2022-12-15T13:52:50;3.30;1.00
506;DHT22;551;48.524;9.056;2022-12-15T13:55:20;3.20;1.00
506;DHT22;551;48.524;9.056;2022-12-15T13:57:59;3.00;1.00
506;DHT22;551;48.524;9.056;2022-12-15T14:00:26;2.90;1.00
506;DHT22;551;48.524;9.056;2022-12-15T14:03:05;2.90;1.00
506;DHT22;551;48.524;9.056;2022-12-15T14:05:31;3.10;1.00
506;DHT22;551;48.524;9.056;2022-12-15T14:07:59;3.00;1.00
506;DHT22;551;48.524;9.056;2022-12-15T14:12:59;2.90;1.00
506;DHT22;551;48.524;9.056;2022-12-15T14:15:31;2.90;1.00
506;DHT22;551;48.524;9.056;2022-12-15T14:17:59;2.90;1.00
506;DHT22;551;48.524;9.056;2022-12-15T14:20:28;2.80;1.00
506;DHT22;551;48.524;9.056;2022-12-15T14:22:54;2.80;1.00
506;DHT22;551;48.524;9.056;2022-12-15T14:25:25;2.80;1.00
506;DHT22;551;48.524;9.056;2022-12-15T14:27:53;2.80;1.00
506;DHT22;551;48.524;9.056;2022-12-15T14:30:25;2.80;1.00
506;DHT22;551;48.524;9.056;2022-12-15T14:33:05;2.80;1.00
506;DHT22;551;48.524;9.056;2022-12-15T14:35:45;2.80;1.00
506;DHT22;551;48.524;9.056;2022-12-15T14:38:15;2.70;1.00
506;DHT22;551;48.524;9.056;2022-12-15T14:40:43;2.70;1.00
506;DHT22;551;48.524;9.056;2022-12-15T14:43:18;2.70;1.00
506;DHT22;551;48.524;9.056;2022-12-15T14:45:52;2.70;1.00
506;DHT22;551;48.524;9.056;2022-12-15T14:48:26;2.70;1.00
506;DHT22;551;48.524;9.056;2022-12-15T14:50:53;2.60;1.00
506;DHT22;551;48.524;9.056;2022-12-15T14:53:20;2.60;1.00
506;DHT22;551;48.524;9.056;2022-12-15T14:55:46;2.70;1.00
506;DHT22;551;48.524;9.056;2022-12-15T14:58:34;2.70;1.00
506;DHT22;551;48.524;9.056;2022-12-15T15:01:01;2.60;1.00
506;DHT22;551;48.524;9.056;2022-12-15T15:03:37;2.70;1.00
506;DHT22;551;48.524;9.056;2022-12-15T15:06:16;2.70;1.00
506;DHT22;551;48.524;9.056;2022-12-15T15:08:48;2.80;1.00
506;DHT22;551;48.524;9.056;2022-12-15T15:11:29;2.80;1.00
506;DHT22;551;48.524;9.056;2022-12-15T15:13:58;2.90;1.00
506;DHT22;551;48.524;9.056;2022-12-15T15:16:24;2.80;1.00
506;DHT22;551;48.524;9.056;2022-12-15T15:18:52;2.80;1.00
506;DHT22;551;48.524;9.056;2022-12-15T15:21:25;2.80;1.00
506;DHT22;551;48.524;9.056;2022-12-15T15:24:03;2.70;1.00
506;DHT22;551;48.524;9.056;2022-12-15T15:26:29;2.60;1.00
506;DHT22;551;48.524;9.056;2022-12-15T15:28:56;2.50;1.00
506;DHT22;551;48.524;9.056;2022-12-15T15:31:36;2.50;1.00
506;DHT22;551;48.524;9.056;2022-12-15T15:34:02;2.50;1.00
506;DHT22;551;48.524;9.056;2022-12-15T15:36:33;2.50;1.00
506;DHT22;551;48.524;9.056;2022-12-15T15:39:00;2.40;1.00
506;DHT22;551;48.524;9.056;2022-12-15T15:41:28;2.40;1.00
506;DHT22;551;48.524;9.056;2022-12-15T15:43:54;2.40;1.00
506;DHT22;551;48.524;9.056;2022-12-15T15:46:28;2.40;1.00
506;DHT22;551;48.524;9.056;2022-12-15T15:49:00;2.30;1.00
506;DHT22;551;48.524;9.056;2022-12-15T15:51:28;2.30;1.00
506;DHT22;551;48.524;9.056;2022-12-15T15:53:58;2.40;1.00
506;DHT22;551;48.524;9.056;2022-12-15T15:56:24;2.50;1.00
506;DHT22;551;48.524;9.056;2022-12-15T15:58:51;2.40;1.00
506;DHT22;551;48.524;9.056;2022-12-15T16:01:17;2.40;1.00
506;DHT22;551;48.524;9.056;2022-12-15T16:03:43;2.40;1.00
506;DHT22;551;48.524;9.056;2022-12-15T16:06:18;2.30;1.00
506;DHT22;551;48.524;9.056;2022-12-15T16:08:48;2.40;1.00
506;DHT22;551;48.524;9.056;2022-12-15T16:11:14;2.30;1.00
506;DHT22;551;48.524;9.056;2022-12-15T16:13:39;2.30;1.00
506;DHT22;551;48.524;9.056;2022-12-15T16:16:05;2.40;1.00
506;DHT22;551;48.524;9.056;2022-12-15T16:18:35;2.40;1.00
506;DHT22;551;48.524;9.056;2022-12-15T16:21:00;2.50;1.00
506;DHT22;551;48.524;9.056;2022-12-15T16:23:27;2.40;1.00
506;DHT22;551;48.524;9.056;2022-12-15T16:25:56;2.40;1.00
506;DHT22;551;48.524;9.056;2022-12-15T16:28:27;2.30;1.00
506;DHT22;551;48.524;9.056;2022-12-15T16:30:54;2.30;1.00
506;DHT22;551;48.524;9.056;2022-12-15T16:33:20;2.30;1.00
506;DHT22;551;48.524;9.056;2022-12-15T16:35:46;2.30;1.00
506;DHT22;551;48.524;9.056;2022-12-15T16:38:25;2.30;1.00
506;DHT22;551;48.524;9.056;2022-12-15T16:40:51;2.40;1.00
506;DHT22;551;48.524;9.056;2022-12-15T16:43:20;2.40;1.00
506;DHT22;551;48.524;9.056;2022-12-15T16:45:48;2.40;1.00
506;DHT22;551;48.524;9.056;2022-12-15T16:48:14;2.50;1.00
506;DHT22;551;48.524;9.056;2022-12-15T16:50:42;2.30;1.00
506;DHT22;551;48.524;9.056;2022-12-15T16:53:21;2.40;1.00
506;DHT22;551;48.524;9.056;2022-12-15T16:55:56;2.40;1.00
506;DHT22;551;48.524;9.056;2022-12-15T16:58:23;2.30;1.00
506;DHT22;551;48.524;9.056;2022-12-15T17:00:50;2.30;1.00
506;DHT22;551;48.524;9.056;2022-12-15T17:03:17;2.30;1.00
506;DHT22;551;48.524;9.056;2022-12-15T17:05:57;2.30;1.00
506;DHT22;551;48.524;9.056;2022-12-15T17:08:43;2.50;1.00
506;DHT22;551;48.524;9.056;2022-12-15T17:11:18;2.50;1.00
506;DHT22;551;48.524;9.056;2022-12-15T17:13:44;2.50;1.00
506;DHT22;551;48.524;9.056;2022-12-15T17:16:13;2.40;1.00
506;DHT22;551;48.524;9.056;2022-12-15T17:18:39;2.40;1.00
506;DHT22;551;48.524;9.056;2022-12-15T17:21:11;2.40;1.00
506;DHT22;551;48.524;9.056;2022-12-15T17:23:39;2.30;1.00
506;DHT22;551;48.524;9.056;2022-12-15T17:26:05;2.40;1.00
506;DHT22;551;48.524;9.056;2022-12-15T17:28:32;2.30;1.00
506;DHT22;551;48.524;9.056;2022-12-15T17:31:01;2.30;1.00
506;DHT22;551;48.524;9.056;2022-12-15T17:33:28;2.30;1.00
506;DHT22;551;48.524;9.056;2022-12-15T17:35:58;2.30;1.00
506;DHT22;551;48.524;9.056;2022-12-15T17:38:25;2.30;1.00
506;DHT22;551;48.524;9.056;2022-12-15T17:40:51;2.30;1.00
506;DHT22;551;48.524;9.056;2022-12-15T17:43:23;2.30;1.00
506;DHT22;551;48.524;9.056;2022-12-15T17:45:49;2.30;1.00
506;DHT22;551;48.524;9.056;2022-12-15T17:48:16;2.40;1.00
506;DHT22;551;48.524;9.056;2022-12-15T17:50:42;2.40;1.00
506;DHT22;551;48.524;9.056;2022-12-15T17:53:14;2.30;1.00
506;DHT22;551;48.524;9.056;2022-12-15T17:55:40;2.30;1.00
506;DHT22;551;48.524;9.056;2022-12-15T17:58:15;2.30;1.00
506;DHT22;551;48.524;9.056;2022-12-15T18:00:41;2.20;1.00
506;DHT22;551;48.524;9.056;2022-12-15T18:03:08;2.30;1.00
506;DHT22;551;48.524;9.056;2022-12-15T18:05:33;2.30;1.00
506;DHT22;551;48.524;9.056;2022-12-15T18:08:02;2.30;1.00
506;DHT22;551;48.524;9.056;2022-12-15T18:10:36;2.30;1.00
506;DHT22;551;48.524;9.056;2022-12-15T18:13:09;2.20;1.00
506;DHT22;551;48.524;9.056;2022-12-15T18:15:36;2.30;1.00
506;DHT22;551;48.524;9.056;2022-12-15T18:18:02;2.30;1.00
506;DHT22;551;48.524;9.056;2022-12-15T18:20:27;2.20;1.00
506;DHT22;551;48.524;9.056;2022-12-15T18:22:54;2.20;1.00
506;DHT22;551;48.524;9.056;2022-12-15T18:25:23;2.20;1.00
506;DHT22;551;48.524;9.056;2022-12-15T18:27:53;2.20;1.00
506;DHT22;551;48.524;9.056;2022-12-15T18:30:22;2.20;1.00
506;DHT22;551;48.524;9.056;2022-12-15T18:32:49;2.20;1.00
506;DHT22;551;48.524;9.056;2022-12-15T18:35:35;2.20;1.00
506;DHT22;551;48.524;9.056;2022-12-15T18:38:17;2.20;1.00
506;DHT22;551;48.524;9.056;2022-12-15T18:40:48;2.20;1.00
506;DHT22;551;48.524;9.056;2022-12-15T18:43:19;2.20;1.00
506;DHT22;551;48.524;9.056;2022-12-15T18:45:45;2.20;1.00
506;DHT22;551;48.524;9.056;2022-12-15T18:48:15;2.20;1.00
506;DHT22;551;48.524;9.056;2022-12-15T18:50:42;2.20;1.00
506;DHT22;551;48.524;9.056;2022-12-15T18:53:16;2.20;1.00
506;DHT22;551;48.524;9.056;2022-12-15T18:55:46;2.10;1.00
506;DHT22;551;48.524;9.056;2022-12-15T18:58:36;2.20;1.00
506;DHT22;551;48.524;9.056;2022-12-15T19:01:04;2.20;1.00
506;DHT22;551;48.524;9.056;2022-12-15T19:03:30;2.20;1.00
506;DHT22;551;48.524;9.056;2022-12-15T19:06:14;2.20;1.00
506;DHT22;551;48.524;9.056;2022-12-15T19:08:43;2.20;1.00
506;DHT22;551;48.524;9.056;2022-12-15T19:11:14;2.20;1.00
506;DHT22;551;48.524;9.056;2022-12-15T19:13:42;2.10;1.00
506;DHT22;551;48.524;9.056;2022-12-15T19:16:19;2.10;1.00
506;DHT22;551;48.524;9.056;2022-12-15T19:18:45;2.20;1.00